• Join FlightAware (Why Join?)
  • Login
  • US Flag 
10:32AM EDT


 

Airport Tracker/Info


-or-


 

Live Flight TrackerFlight Track Log ✈ CTL13 ✈ 28-Jun-2013 ✈ KEYE - KMDW

Flight Track Log - Related Links

Times and Time Zones

All times are in EDT time to prevent confusion due to time zone crossing. See the CTL13 flight status page for this flight to view local times or setup timezone preferences in your user account.

Time Position Orientation Groundspeed Altitude Reporting Facility
EDT Latitude Longitude Course Direction KTS MPH feet Rate Location/Type
09:10PM 39.8500 -86.2833 303° West 100 115 1,200  Level Indianapolis TRACON
09:11PM 39.8667 -86.3167 303° West 129 148 1,800 540 Climbing Indianapolis TRACON
09:12PM 39.9000 -86.3500 323° Northwest 134 154 2,300 360 Climbing Indianapolis TRACON
09:13PM 39.9333 -86.3833 323° Northwest 135 155 2,600 300 Climbing Indianapolis TRACON
09:14PM 39.9667 -86.4000 339° North 137 158 2,900 300 Climbing Indianapolis TRACON
09:15PM 39.9833 -86.4333 303° West 132 152 3,300 360 Climbing Indianapolis TRACON
09:17PM 40.0236 -86.4794 319° Northwest 131 151 3,900 300 Climbing Chicago Center
09:18PM 40.0517 -86.5097 320° Northwest 130 150 4,100 60 Climbing Chicago Center
09:19PM 40.0886 -86.5517 319° Northwest 138 159 4,100  Level Chicago Center
09:20PM 40.1122 -86.5794 318° Northwest 143 165 4,100  Level Indianapolis Center
09:21PM 40.1439 -86.6144 320° Northwest 146 168 4,100  Level Indianapolis Center
09:22PM 40.1819 -86.6586 318° Northwest 150 173 4,100 -60 Level Indianapolis Center
09:23PM 40.2133 -86.6942 319° Northwest 151 174 4,000 -60 Descending Chicago Center
09:24PM 40.2453 -86.7317 318° Northwest 152 175 4,000  Level Chicago Center
09:25PM 40.2775 -86.7664 321° Northwest 152 175 4,000  Level Chicago Center
09:26PM 40.3117 -86.8042 320° Northwest 151 174 4,000  Level Chicago Center
09:27PM 40.3417 -86.8361 321° Northwest 148 170 4,000  Level Chicago Center
09:28PM 40.3756 -86.8736 320° Northwest 152 175 4,000  Level Chicago Center
09:29PM 40.4058 -86.9058 321° Northwest 152 175 4,000  Level Chicago Center
09:30PM 40.4419 -86.9436 321° Northwest 153 176 4,000 -60 Level Chicago Center
09:31PM 40.4758 -86.9814 320° Northwest 154 177 3,900  Descending Chicago Center
09:32PM 40.5081 -87.0136 323° Northwest 153 176 4,000  Climbing Chicago Center
09:33PM 40.5419 -87.0542 318° Northwest 154 177 4,000  Level Chicago Center
09:35PM 40.5900 -87.0858 333° Northwest 149 171 4,000  Level Chicago Center
09:36PM 40.6286 -87.1056 339° North 152 175 4,100  Climbing Chicago Center
09:37PM 40.6750 -87.1325 336° Northwest 152 175 4,000  Descending Chicago Center
09:38PM 40.7133 -87.1531 338° Northwest 150 173 4,100  Climbing Chicago Center
09:39PM 40.7525 -87.1742 338° Northwest 152 175 4,000  Descending Chicago Center
09:40PM 40.7922 -87.1942 339° North 153 176 4,100  Climbing Chicago Center
09:41PM 40.8306 -87.2167 336° Northwest 153 176 4,000  Descending Chicago Center
09:42PM 40.8786 -87.2419 338° Northwest 155 178 4,100  Climbing Chicago Center
09:43PM 40.9186 -87.2619 339° North 155 178 4,100  Level Chicago Center
09:44PM 40.9569 -87.2825 338° Northwest 153 176 4,100 -120 Level Chicago Center
09:45PM 40.9953 -87.3033 338° Northwest 151 174 3,900 -60 Descending Chicago Center
09:46PM 41.0342 -87.3247 337° Northwest 152 175 4,000  Climbing Chicago Center
09:47PM 41.0731 -87.3472 336° Northwest 152 175 4,000  Level Chicago Center
09:48PM 41.1219 -87.3733 338° Northwest 157 181 4,000  Level Chicago Center
09:49PM 41.1622 -87.3942 339° North 157 181 4,000  Level Chicago Center
09:50PM 41.2022 -87.4153 338° Northwest 157 181 4,000 -360 Level Chicago Center
09:51PM 41.2261 -87.4661 302° West 170 196 3,300 -540 Descending Chicago Center
09:52PM 41.2514 -87.5122 306° West 169 194 3,000 -180 Descending Chicago Center
09:53PM 41.2942 -87.5203 352° North 163 188 3,000  Level Chicago Center
09:54PM 41.3450 -87.5319 350° North 158 182 3,000  Level Chicago Center
09:55PM 41.3864 -87.5433 348° North 155 178 3,000  Level Chicago Center
09:56PM 41.4297 -87.5539 350° North 157 181 3,000  Level Chicago Center
09:57PM 41.4725 -87.5622 352° North 157 181 3,000  Level Chicago Center
09:58PM 41.5147 -87.5744 348° North 157 181 3,000  Level Chicago Center
09:59PM 41.5667 -87.5922 346° North 159 183 3,000  Level Chicago Center
10:00PM 41.6086 -87.6061 346° North 159 183 3,000 -60 Level Chicago Center
10:01PM 41.6506 -87.6197 346° North 158 182 2,900 -360 Descending Chicago Center
10:02PM 41.6936 -87.6372 343° North 160 184 2,300 -540 Descending Chicago Center
10:03PM 41.7253 -87.6806 314° West 162 186 1,900 -480 Descending Chicago Center
10:04PM 41.7542 -87.7164 317° Northwest 155 178 1,400 -480 Descending Chicago Center
10:05PM 41.7817 -87.7492 318° Northwest 143 165 1,000 -420 Descending Chicago Center